createdAt,value
2022-11-10T00:02:15.149Z,8.86
2022-11-10T00:04:43.048Z,8.64
2022-11-10T00:07:11.239Z,8.86
2022-11-10T00:09:40.643Z,8.85
2022-11-10T00:12:08.535Z,8.78
2022-11-10T00:14:50.492Z,8.84
2022-11-10T00:17:18.476Z,8.82
2022-11-10T00:19:46.384Z,8.80
2022-11-10T00:22:14.369Z,8.79
2022-11-10T00:24:44.870Z,8.78
2022-11-10T00:27:13.878Z,8.71
2022-11-10T00:29:41.978Z,8.74
2022-11-10T00:32:10.331Z,8.69
2022-11-10T00:34:38.236Z,8.65
2022-11-10T00:37:06.209Z,8.62
2022-11-10T00:39:34.173Z,8.46
2022-11-10T00:42:03.571Z,8.68
2022-11-10T00:44:31.494Z,8.69
2022-11-10T00:46:59.441Z,8.66
2022-11-10T00:49:27.654Z,8.63
2022-11-10T00:51:55.639Z,8.34
2022-11-10T00:54:23.613Z,8.58
2022-11-10T00:56:51.431Z,8.57
2022-11-10T00:59:20.733Z,8.57
2022-11-10T01:01:48.644Z,8.57
2022-11-10T01:04:16.607Z,8.44
2022-11-10T01:06:44.651Z,8.52
2022-11-10T01:09:12.543Z,8.53
2022-11-10T01:11:40.481Z,8.51
2022-11-10T01:14:09.043Z,8.54
2022-11-10T01:16:38.303Z,8.53
2022-11-10T01:19:06.324Z,8.53
2022-11-10T01:21:34.250Z,8.51
2022-11-10T01:24:02.276Z,8.30
2022-11-10T01:26:30.371Z,8.45
2022-11-10T01:28:58.731Z,8.44
2022-11-10T01:31:26.615Z,8.41
2022-11-10T01:33:55.977Z,8.45
2022-11-10T01:36:24.060Z,8.45
2022-11-10T01:38:51.939Z,8.46
2022-11-10T01:41:19.913Z,8.43
2022-11-10T01:43:47.824Z,8.21
2022-11-10T01:46:16.607Z,8.27
2022-11-10T01:48:47.532Z,8.40
2022-11-10T01:51:22.497Z,8.39
2022-11-10T01:53:54.984Z,8.35
2022-11-10T01:56:24.918Z,7.99
2022-11-10T01:58:58.080Z,8.24
2022-11-10T02:01:26.513Z,8.29
2022-11-10T02:03:57.448Z,8.26
2022-11-10T02:06:36.940Z,8.25
2022-11-10T02:09:05.159Z,8.22
2022-11-10T02:11:33.951Z,8.20
2022-11-10T02:14:02.747Z,8.21
2022-11-10T02:16:31.381Z,8.22
2022-11-10T02:18:59.263Z,8.21
2022-11-10T02:21:28.606Z,8.18
2022-11-10T02:23:56.636Z,8.00
2022-11-10T02:26:26.907Z,8.12
2022-11-10T02:28:54.884Z,8.14
2022-11-10T02:31:24.243Z,8.11
2022-11-10T02:33:52.085Z,7.99
2022-11-10T02:36:20.104Z,8.14
2022-11-10T02:38:49.437Z,8.11
2022-11-10T02:41:17.306Z,8.23
2022-11-10T02:43:45.363Z,8.21
2022-11-10T02:46:13.542Z,8.32
2022-11-10T02:48:41.409Z,8.35
2022-11-10T02:51:09.866Z,8.18
2022-11-10T02:53:37.826Z,8.44
2022-11-10T02:56:07.656Z,8.33
2022-11-10T02:58:35.664Z,8.42
2022-11-10T03:01:06.902Z,8.53
2022-11-10T03:03:35.461Z,8.49
2022-11-10T03:06:03.732Z,8.57
2022-11-10T03:08:31.715Z,8.58
2022-11-10T03:10:59.597Z,8.23
2022-11-10T03:13:45.309Z,8.64
2022-11-10T03:16:19.283Z,8.67
2022-11-10T03:18:47.931Z,8.71
2022-11-10T03:21:16.239Z,8.67
2022-11-10T03:23:44.098Z,8.70
2022-11-10T03:26:12.092Z,8.77
2022-11-10T03:28:41.387Z,8.77
2022-11-10T03:31:09.415Z,8.57
2022-11-10T03:33:37.491Z,8.70
2022-11-10T03:36:05.808Z,8.66
2022-11-10T03:38:33.703Z,8.77
2022-11-10T03:41:18.938Z,8.76
2022-11-10T03:43:49.317Z,8.74
2022-11-10T03:46:18.067Z,8.73
2022-11-10T03:48:51.833Z,8.69
2022-11-10T03:51:21.190Z,8.43
2022-11-10T03:53:49.058Z,8.71
2022-11-10T03:56:16.984Z,8.65
2022-11-10T03:58:45.227Z,8.74
2022-11-10T04:01:14.633Z,8.63
2022-11-10T04:03:44.361Z,8.77
2022-11-10T04:06:31.849Z,8.78
2022-11-10T04:09:02.628Z,8.76
2022-11-10T04:11:49.530Z,8.63
2022-11-10T04:14:34.954Z,8.82
2022-11-10T04:17:05.064Z,8.83
2022-11-10T04:19:33.065Z,8.84
2022-11-10T04:22:01.013Z,8.82
2022-11-10T04:24:29.089Z,8.81
2022-11-10T04:26:56.969Z,8.85
2022-11-10T04:29:24.837Z,8.73
2022-11-10T04:31:53.257Z,8.86
2022-11-10T04:34:22.508Z,8.86
2022-11-10T04:36:50.443Z,8.67
2022-11-10T04:39:18.594Z,8.81
2022-11-10T04:41:47.344Z,8.78
2022-11-10T04:44:15.269Z,8.79
2022-11-10T04:46:44.232Z,8.80
2022-11-10T04:49:12.612Z,8.78
2022-11-10T04:51:41.978Z,8.79
2022-11-10T04:54:11.492Z,8.81
2022-11-10T04:56:40.276Z,8.83
2022-11-10T04:59:08.170Z,8.83
2022-11-10T05:01:36.324Z,8.84
2022-11-10T05:04:05.636Z,8.85
2022-11-10T05:06:33.568Z,8.84
2022-11-10T05:09:03.555Z,8.82
2022-11-10T05:11:31.418Z,8.83
2022-11-10T05:13:59.322Z,8.82
2022-11-10T05:16:27.250Z,8.80
2022-11-10T05:18:56.083Z,8.79
2022-11-10T05:21:24.017Z,8.77
2022-11-10T05:23:52.028Z,8.71
2022-11-10T05:26:21.327Z,8.75
2022-11-10T05:28:49.216Z,8.73
2022-11-10T05:31:17.265Z,8.75
2022-11-10T05:33:45.192Z,8.70
2022-11-10T05:36:13.055Z,8.78
2022-11-10T05:38:43.754Z,8.77
2022-11-10T05:41:12.142Z,8.81
2022-11-10T05:43:41.427Z,8.78
2022-11-10T05:46:09.492Z,8.85
2022-11-10T05:48:37.380Z,8.78
2022-11-10T05:51:05.430Z,8.84
2022-11-10T05:53:33.701Z,8.88
2022-11-10T05:56:01.582Z,8.89
2022-11-10T05:58:29.485Z,8.86
2022-11-10T06:00:58.890Z,8.87
2022-11-10T06:03:27.070Z,8.83
2022-11-10T06:05:55.206Z,8.90
2022-11-10T06:08:23.446Z,8.92
2022-11-10T06:10:51.331Z,8.92
2022-11-10T06:13:19.323Z,8.90
2022-11-10T06:15:50.325Z,8.90
2022-11-10T06:18:19.740Z,8.85
2022-11-10T06:20:48.484Z,8.88
2022-11-10T06:23:16.601Z,8.80
2022-11-10T06:25:44.734Z,8.62
2022-11-10T06:28:12.999Z,8.78
2022-11-10T06:30:41.013Z,8.75
2022-11-10T06:33:09.839Z,8.76
2022-11-10T06:35:39.473Z,8.81
2022-11-10T06:38:09.031Z,8.86
2022-11-10T06:40:37.054Z,8.75
2022-11-10T06:43:05.923Z,8.81
2022-11-10T06:45:33.788Z,8.89
2022-11-10T06:48:02.994Z,8.91
2022-11-10T06:50:31.167Z,8.93
2022-11-10T06:53:01.698Z,8.58
2022-11-10T06:55:30.356Z,8.94
2022-11-10T06:57:58.767Z,8.93
2022-11-10T07:00:27.668Z,8.94
2022-11-10T07:03:02.927Z,8.93
2022-11-10T07:05:31.364Z,8.95
2022-11-10T07:08:04.733Z,8.89
2022-11-10T07:10:33.515Z,8.94
2022-11-10T07:13:02.770Z,8.96
2022-11-10T07:15:31.672Z,8.99
2022-11-10T07:17:59.620Z,8.95
2022-11-10T07:20:28.492Z,8.99
2022-11-10T07:23:00.627Z,9.03
2022-11-10T07:25:32.804Z,9.06
2022-11-10T07:28:02.644Z,8.85
2022-11-10T07:30:32.294Z,8.95
2022-11-10T07:33:01.576Z,9.04
2022-11-10T07:35:30.841Z,8.51
2022-11-10T07:38:02.121Z,9.14
2022-11-10T07:40:32.102Z,9.04
2022-11-10T07:43:00.249Z,9.10
2022-11-10T07:45:28.867Z,8.85
2022-11-10T07:48:00.307Z,9.05
2022-11-10T07:50:28.665Z,9.02
2022-11-10T07:53:04.337Z,9.01
2022-11-10T07:55:33.851Z,9.04
2022-11-10T07:58:02.225Z,9.06
2022-11-10T08:00:30.872Z,9.01
2022-11-10T08:03:03.771Z,9.13
2022-11-10T08:05:31.932Z,9.10
2022-11-10T08:08:00.500Z,9.13
2022-11-10T08:10:28.521Z,8.99
2022-11-10T08:12:59.255Z,9.24
2022-11-10T08:15:28.846Z,9.26
2022-11-10T08:18:00.063Z,9.27
2022-11-10T08:20:28.206Z,9.23
2022-11-10T08:23:00.202Z,9.32
2022-11-10T08:25:34.160Z,9.22
2022-11-10T08:28:07.364Z,9.02
2022-11-10T08:30:36.422Z,9.41
2022-11-10T08:33:06.126Z,9.38
2022-11-10T08:35:37.789Z,9.39
2022-11-10T08:38:10.204Z,9.54
2022-11-10T08:40:38.449Z,9.57
2022-11-10T08:43:08.724Z,9.59
2022-11-10T08:45:37.376Z,9.71
2022-11-10T08:48:07.445Z,9.81
2022-11-10T08:50:35.600Z,9.89
2022-11-10T08:53:05.058Z,9.78
2022-11-10T08:55:33.329Z,9.94
2022-11-10T08:58:02.804Z,10.00
2022-11-10T09:00:33.583Z,10.08
2022-11-10T09:03:06.520Z,10.06
2022-11-10T09:05:34.800Z,10.07
2022-11-10T09:08:04.014Z,10.06
2022-11-10T09:10:32.193Z,9.79
2022-11-10T09:13:01.550Z,9.98
2022-11-10T09:15:31.573Z,9.96
2022-11-10T09:18:00.391Z,10.32
2022-11-10T09:20:29.585Z,10.72
2022-11-10T09:22:57.754Z,11.01
2022-11-10T09:25:25.768Z,11.29
2022-11-10T09:27:53.779Z,11.53
2022-11-10T09:30:21.800Z,11.89
2022-11-10T09:32:56.168Z,11.78
2022-11-10T09:35:24.565Z,11.40
2022-11-10T09:37:52.621Z,11.37
2022-11-10T09:40:25.111Z,11.49
2022-11-10T09:42:56.931Z,11.53
2022-11-10T09:45:28.021Z,11.43
2022-11-10T09:48:01.582Z,11.27
2022-11-10T09:50:37.502Z,11.12
2022-11-10T09:53:07.292Z,11.33
2022-11-10T09:55:40.103Z,11.47
2022-11-10T09:58:12.625Z,11.58
2022-11-10T10:00:43.743Z,11.81
2022-11-10T10:03:22.747Z,11.88
2022-11-10T10:06:02.832Z,12.06
2022-11-10T10:08:45.607Z,12.13
2022-11-10T10:11:27.876Z,12.23
2022-11-10T10:14:24.787Z,12.10
2022-11-10T10:17:01.031Z,11.90
2022-11-10T10:19:40.734Z,11.49
2022-11-10T10:22:28.512Z,12.14
2022-11-10T10:25:02.834Z,12.18
2022-11-10T10:27:33.159Z,11.95
2022-11-10T10:30:01.252Z,11.85
2022-11-10T10:32:29.804Z,11.84
2022-11-10T10:34:59.172Z,11.70
2022-11-10T10:37:40.733Z,11.77
2022-11-10T10:40:14.837Z,11.66
2022-11-10T10:42:42.905Z,11.50
2022-11-10T10:45:19.125Z,11.31
2022-11-10T10:47:49.483Z,11.42
2022-11-10T10:50:35.150Z,11.43
2022-11-10T10:53:17.096Z,11.47
2022-11-10T10:55:50.381Z,11.38
2022-11-10T10:58:27.376Z,11.27
2022-11-10T11:01:01.899Z,11.20
2022-11-10T11:03:31.871Z,11.13
2022-11-10T11:06:08.084Z,11.06
2022-11-10T11:08:36.390Z,11.05
2022-11-10T11:11:12.878Z,11.10
2022-11-10T11:13:40.981Z,10.99
2022-11-10T11:16:12.447Z,11.25
2022-11-10T11:18:41.522Z,11.16
2022-11-10T11:21:18.714Z,11.17
2022-11-10T11:24:07.202Z,11.35
2022-11-10T11:26:49.957Z,11.39
2022-11-10T11:29:33.281Z,11.35
2022-11-10T11:32:15.530Z,11.50
2022-11-10T11:34:54.837Z,11.49
2022-11-10T11:37:32.893Z,11.60
2022-11-10T11:40:14.872Z,11.53
2022-11-10T11:42:54.739Z,11.59
2022-11-10T11:45:32.460Z,11.50
2022-11-10T11:48:12.918Z,11.34
2022-11-10T11:50:45.160Z,11.36
2022-11-10T11:53:28.832Z,11.37
2022-11-10T11:56:10.161Z,11.25
2022-11-10T11:58:45.459Z,11.36
2022-11-10T12:01:27.460Z,11.36
2022-11-10T12:04:33.810Z,11.28
2022-11-10T12:07:14.398Z,11.25
2022-11-10T12:09:48.165Z,11.25
2022-11-10T12:12:31.512Z,11.29
2022-11-10T12:15:09.426Z,11.25
2022-11-10T12:17:47.439Z,11.29
2022-11-10T12:20:27.302Z,11.28
2022-11-10T12:23:03.876Z,11.31
2022-11-10T12:25:39.557Z,11.21
2022-11-10T12:28:16.741Z,11.35
2022-11-10T12:30:45.846Z,11.25
2022-11-10T12:33:22.019Z,11.11
2022-11-10T12:35:52.643Z,10.99
2022-11-10T12:38:26.530Z,10.77
2022-11-10T12:41:02.896Z,10.93
2022-11-10T12:43:36.579Z,10.98
2022-11-10T12:46:08.890Z,10.97
2022-11-10T12:48:46.276Z,11.06
2022-11-10T12:51:21.772Z,11.09
2022-11-10T12:53:50.452Z,11.15
2022-11-10T12:56:25.462Z,11.16
2022-11-10T12:59:16.404Z,11.22
2022-11-10T13:01:46.224Z,11.17
2022-11-10T13:04:15.757Z,11.00
2022-11-10T13:06:49.977Z,11.13
2022-11-10T13:09:25.690Z,11.11
2022-11-10T13:12:21.295Z,11.06
2022-11-10T13:14:49.990Z,11.00
2022-11-10T13:17:55.161Z,10.97
2022-11-10T13:20:48.224Z,10.95
2022-11-10T13:23:27.323Z,10.92
2022-11-10T13:25:58.363Z,10.86
2022-11-10T13:29:03.849Z,10.87
2022-11-10T13:31:52.117Z,10.81
2022-11-10T13:34:32.488Z,10.73
2022-11-10T13:37:01.177Z,10.67
2022-11-10T13:39:31.521Z,10.74
2022-11-10T13:42:17.881Z,10.59
2022-11-10T13:44:47.965Z,10.70
2022-11-10T13:47:37.472Z,10.70
2022-11-10T13:50:22.232Z,10.69
2022-11-10T13:53:00.954Z,10.69
2022-11-10T13:55:41.256Z,10.51
2022-11-10T13:58:18.466Z,10.62
2022-11-10T14:00:52.713Z,10.57
2022-11-10T14:03:55.342Z,10.53
2022-11-10T14:06:26.600Z,10.37
2022-11-10T14:08:57.853Z,10.43
2022-11-10T14:11:35.296Z,10.39
2022-11-10T14:14:13.052Z,10.05
2022-11-10T14:16:44.188Z,10.19
2022-11-10T14:19:26.901Z,10.22
2022-11-10T14:21:58.562Z,10.24
2022-11-10T14:24:30.123Z,10.21
2022-11-10T14:27:00.935Z,10.15
2022-11-10T14:29:32.424Z,10.03
2022-11-10T14:32:04.357Z,10.05
2022-11-10T14:34:42.391Z,9.66
2022-11-10T14:37:16.739Z,9.95
2022-11-10T14:39:45.601Z,9.92
2022-11-10T14:42:19.985Z,9.92
2022-11-10T14:44:48.929Z,9.89
2022-11-10T14:47:26.085Z,9.85
2022-11-10T14:50:08.325Z,9.51
2022-11-10T14:52:40.574Z,9.77
2022-11-10T14:55:14.145Z,9.51
2022-11-10T14:57:42.311Z,9.73
2022-11-10T15:00:16.342Z,9.71
2022-11-10T15:02:46.281Z,9.72
2022-11-10T15:05:15.802Z,9.75
2022-11-10T15:07:46.323Z,9.79
2022-11-10T15:10:22.596Z,9.83
2022-11-10T15:13:05.024Z,9.87
2022-11-10T15:15:33.035Z,9.87
2022-11-10T15:18:02.383Z,9.88
2022-11-10T15:20:36.131Z,9.81
2022-11-10T15:23:06.114Z,9.86
2022-11-10T15:25:38.968Z,9.80
2022-11-10T15:28:25.815Z,9.81
2022-11-10T15:30:56.683Z,9.79
2022-11-10T15:33:32.231Z,9.71
2022-11-10T15:36:15.899Z,9.75
2022-11-10T15:38:43.839Z,9.61
2022-11-10T15:41:14.789Z,9.69
2022-11-10T15:43:43.311Z,9.67
2022-11-10T15:46:17.806Z,9.65
2022-11-10T15:48:51.076Z,9.60
2022-11-10T15:51:25.977Z,9.58
2022-11-10T15:53:55.780Z,9.55
2022-11-10T15:56:25.597Z,9.53
2022-11-10T15:58:59.257Z,9.54
2022-11-10T16:01:31.546Z,9.52
2022-11-10T16:04:00.920Z,9.32
2022-11-10T16:06:30.661Z,9.39
2022-11-10T16:08:58.850Z,9.46
2022-11-10T16:11:27.121Z,9.43
2022-11-10T16:13:56.373Z,9.42
2022-11-10T16:16:24.842Z,9.40
2022-11-10T16:18:53.143Z,9.23
2022-11-10T16:21:24.025Z,9.32
2022-11-10T16:23:53.667Z,9.26
2022-11-10T16:26:24.969Z,9.28
2022-11-10T16:28:53.487Z,9.17
2022-11-10T16:31:23.303Z,9.19
2022-11-10T16:33:51.446Z,9.20
2022-11-10T16:36:26.232Z,9.17
2022-11-10T16:38:55.367Z,9.07
2022-11-10T16:41:23.634Z,9.08
2022-11-10T16:43:51.575Z,9.06
2022-11-10T16:46:22.873Z,9.04
2022-11-10T16:48:53.979Z,8.94
2022-11-10T16:51:29.928Z,8.97
2022-11-10T16:53:59.669Z,8.95
2022-11-10T16:56:27.601Z,8.82
2022-11-10T16:58:55.635Z,8.94
2022-11-10T17:01:27.736Z,8.92
2022-11-10T17:03:58.264Z,8.67
2022-11-10T17:06:29.155Z,8.88
2022-11-10T17:09:01.673Z,8.91
2022-11-10T17:11:29.682Z,8.95
2022-11-10T17:13:57.623Z,8.88
2022-11-10T17:16:28.909Z,8.93
2022-11-10T17:18:58.921Z,8.90
2022-11-10T17:21:32.892Z,9.06
2022-11-10T17:24:01.935Z,8.78
2022-11-10T17:26:30.768Z,9.06
2022-11-10T17:28:58.841Z,9.02
2022-11-10T17:31:27.024Z,9.06
2022-11-10T17:33:55.316Z,9.10
2022-11-10T17:36:24.535Z,9.09
2022-11-10T17:38:53.978Z,9.00
2022-11-10T17:41:22.128Z,9.01
2022-11-10T17:43:50.061Z,8.97
2022-11-10T17:46:18.412Z,8.99
2022-11-10T17:48:47.775Z,9.01
2022-11-10T17:51:19.296Z,8.95
2022-11-10T17:53:47.377Z,8.91
2022-11-10T17:56:16.590Z,8.96
2022-11-10T17:58:44.636Z,9.02
2022-11-10T18:01:18.897Z,8.94
2022-11-10T18:03:47.655Z,9.03
2022-11-10T18:06:16.152Z,9.02
2022-11-10T18:08:44.601Z,8.95
2022-11-10T18:11:15.473Z,8.77
2022-11-10T18:13:45.798Z,9.02
2022-11-10T18:16:15.070Z,9.02
2022-11-10T18:18:43.133Z,9.03
2022-11-10T18:21:11.427Z,9.04
2022-11-10T18:23:39.369Z,9.05
2022-11-10T18:26:09.056Z,8.98
2022-11-10T18:28:37.186Z,9.08
2022-11-10T18:31:10.816Z,9.00
2022-11-10T18:33:38.801Z,9.14
2022-11-10T18:36:07.536Z,9.19
2022-11-10T18:38:36.075Z,9.24
2022-11-10T18:41:26.676Z,9.26
2022-11-10T18:43:54.683Z,9.28
2022-11-10T18:46:24.040Z,9.15
2022-11-10T18:48:51.876Z,9.28
2022-11-10T18:51:20.076Z,9.31
2022-11-10T18:53:48.169Z,9.27
2022-11-10T18:56:16.054Z,9.32
2022-11-10T18:58:44.047Z,9.20
2022-11-10T19:01:12.851Z,9.25
2022-11-10T19:03:42.902Z,9.32
2022-11-10T19:06:11.834Z,9.01
2022-11-10T19:08:40.219Z,9.35
2022-11-10T19:11:09.827Z,9.39
2022-11-10T19:13:38.368Z,9.37
2022-11-10T19:16:07.744Z,9.47
2022-11-10T19:18:35.762Z,9.48
2022-11-10T19:21:07.545Z,9.49
2022-11-10T19:23:35.975Z,9.50
2022-11-10T19:26:05.715Z,9.40
2022-11-10T19:28:33.771Z,9.51
2022-11-10T19:31:02.329Z,9.54
2022-11-10T19:33:31.674Z,9.55
2022-11-10T19:36:03.370Z,9.46
2022-11-10T19:38:33.153Z,9.64
2022-11-10T19:41:05.812Z,9.56
2022-11-10T19:43:33.733Z,9.69
2022-11-10T19:46:05.349Z,9.66
2022-11-10T19:48:33.798Z,9.77
2022-11-10T19:51:03.199Z,9.78
2022-11-10T19:53:33.372Z,9.66
2022-11-10T19:56:02.627Z,9.91
2022-11-10T19:58:30.828Z,9.92
2022-11-10T20:01:00.194Z,9.91
2022-11-10T20:03:29.862Z,9.99
2022-11-10T20:06:02.078Z,10.02
2022-11-10T20:08:30.725Z,10.02
2022-11-10T20:11:05.607Z,10.04
2022-11-10T20:13:33.915Z,10.08
2022-11-10T20:16:04.979Z,10.10
2022-11-10T20:18:34.836Z,10.12
2022-11-10T20:21:06.345Z,10.13
2022-11-10T20:23:34.808Z,10.14
2022-11-10T20:26:05.980Z,10.04
2022-11-10T20:28:35.916Z,10.02
2022-11-10T20:31:05.246Z,9.88
2022-11-10T20:33:34.380Z,9.15
2022-11-10T20:36:07.712Z,9.79
2022-11-10T20:38:37.577Z,9.75
2022-11-10T20:41:09.487Z,9.70
2022-11-10T20:43:39.216Z,9.68
2022-11-10T20:46:09.464Z,9.68
2022-11-10T20:48:37.515Z,9.66
2022-11-10T20:51:10.748Z,9.48
2022-11-10T20:53:39.207Z,9.67
2022-11-10T20:56:09.217Z,9.68
2022-11-10T20:58:37.330Z,9.67
2022-11-10T21:01:07.669Z,9.65
2022-11-10T21:03:36.306Z,9.59
2022-11-10T21:06:04.943Z,9.60
2022-11-10T21:08:33.073Z,9.15
2022-11-10T21:11:03.292Z,9.59
2022-11-10T21:13:32.685Z,9.58
2022-11-10T21:16:03.152Z,9.58
2022-11-10T21:18:33.409Z,9.62
2022-11-10T21:21:01.368Z,9.65
2022-11-10T21:23:29.499Z,9.67
2022-11-10T21:25:59.088Z,9.67
2022-11-10T21:28:27.326Z,9.62
2022-11-10T21:31:05.300Z,9.73
2022-11-10T21:33:33.206Z,9.77
2022-11-10T21:36:07.061Z,9.57
2022-11-10T21:38:35.885Z,9.81
2022-11-10T21:41:04.026Z,9.70
2022-11-10T21:43:32.285Z,9.89
2022-11-10T21:46:02.305Z,9.92
2022-11-10T21:48:31.767Z,9.63
2022-11-10T21:51:01.793Z,10.01
2022-11-10T21:53:29.788Z,9.97
2022-11-10T21:56:01.460Z,9.98
2022-11-10T21:58:29.411Z,9.97
2022-11-10T22:01:01.809Z,9.90
2022-11-10T22:03:31.629Z,10.21
2022-11-10T22:06:04.062Z,10.23
2022-11-10T22:08:32.139Z,9.58
2022-11-10T22:11:29.070Z,10.21
2022-11-10T22:14:14.348Z,10.30
2022-11-10T22:17:03.329Z,10.32
2022-11-10T22:19:34.490Z,10.34
2022-11-10T22:22:03.867Z,10.35
2022-11-10T22:24:33.838Z,10.37
2022-11-10T22:27:03.028Z,10.29
2022-11-10T22:29:32.635Z,10.40
2022-11-10T22:32:01.315Z,10.41
2022-11-10T22:34:29.421Z,10.44
2022-11-10T22:36:59.696Z,10.45
2022-11-10T22:39:48.542Z,10.43
2022-11-10T22:42:33.769Z,10.33
2022-11-10T22:45:01.880Z,10.23
2022-11-10T22:47:49.971Z,10.41
2022-11-10T22:50:18.148Z,10.42
2022-11-10T22:52:47.341Z,10.17
2022-11-10T22:55:15.355Z,10.43
2022-11-10T22:57:43.471Z,10.37
2022-11-10T23:00:12.636Z,10.39
2022-11-10T23:02:40.437Z,10.46
2022-11-10T23:05:08.904Z,10.38
2022-11-10T23:07:36.754Z,10.44
2022-11-10T23:10:06.843Z,10.43
2022-11-10T23:12:35.189Z,9.72
2022-11-10T23:15:03.168Z,10.41
2022-11-10T23:17:31.141Z,10.41
2022-11-10T23:19:59.329Z,10.41
2022-11-10T23:22:27.188Z,10.36
2022-11-10T23:24:57.387Z,10.38
2022-11-10T23:27:27.115Z,10.02
2022-11-10T23:29:55.056Z,10.15
2022-11-10T23:32:22.899Z,10.40
2022-11-10T23:34:50.982Z,10.40
2022-11-10T23:37:21.009Z,9.72
2022-11-10T23:39:48.960Z,10.43
2022-11-10T23:42:17.023Z,10.44
2022-11-10T23:44:46.315Z,10.44
2022-11-10T23:47:14.180Z,10.45
2022-11-10T23:49:42.299Z,10.46
2022-11-10T23:52:10.180Z,10.46
2022-11-10T23:54:38.043Z,10.38
2022-11-10T23:57:06.144Z,10.46
2022-11-10T23:59:34.082Z,10.27
